createdAt,value
2017-09-03T00:00:26.534Z,13.10
2017-09-03T00:02:52.569Z,13.10
2017-09-03T00:05:18.602Z,13.10
2017-09-03T00:07:44.665Z,13.10
2017-09-03T00:10:10.697Z,13.10
2017-09-03T00:12:36.757Z,13.00
2017-09-03T00:15:02.817Z,13.00
2017-09-03T00:17:28.882Z,13.00
2017-09-03T00:19:54.921Z,13.00
2017-09-03T00:22:20.967Z,13.00
2017-09-03T00:24:47.002Z,13.00
2017-09-03T00:27:13.048Z,13.00
2017-09-03T00:29:39.081Z,13.00
2017-09-03T00:32:05.117Z,12.90
2017-09-03T00:34:31.147Z,13.00
2017-09-03T00:36:57.175Z,12.90
2017-09-03T00:39:23.242Z,12.90
2017-09-03T00:41:49.340Z,12.90
2017-09-03T00:44:15.406Z,12.90
2017-09-03T00:46:41.470Z,12.90
2017-09-03T00:49:07.596Z,12.80
2017-09-03T00:51:33.631Z,12.80
2017-09-03T00:53:59.693Z,12.70
2017-09-03T00:56:25.741Z,12.70
2017-09-03T00:58:51.765Z,12.70
2017-09-03T01:01:17.789Z,12.70
2017-09-03T01:03:43.833Z,12.80
2017-09-03T01:06:09.865Z,12.70
2017-09-03T01:08:35.901Z,12.70
2017-09-03T01:11:01.949Z,12.70
2017-09-03T01:13:27.973Z,12.70
2017-09-03T01:15:54.029Z,12.70
2017-09-03T01:18:20.090Z,12.60
2017-09-03T01:20:46.150Z,12.60
2017-09-03T01:23:12.224Z,12.60
2017-09-03T01:25:38.266Z,12.70
2017-09-03T01:28:04.305Z,12.60
2017-09-03T01:30:30.334Z,12.50
2017-09-03T01:32:56.372Z,12.40
2017-09-03T01:35:22.409Z,12.40
2017-09-03T01:37:48.446Z,12.50
2017-09-03T01:40:14.505Z,12.50
2017-09-03T01:42:40.533Z,12.50
2017-09-03T01:45:06.552Z,12.40
2017-09-03T01:47:32.600Z,12.40
2017-09-03T01:49:58.638Z,12.30
2017-09-03T01:52:24.677Z,12.40
2017-09-03T01:54:50.729Z,12.30
2017-09-03T01:57:16.795Z,12.30
2017-09-03T01:59:42.837Z,12.20
2017-09-03T02:02:08.917Z,12.20
2017-09-03T02:04:34.960Z,12.20
2017-09-03T02:07:01.016Z,12.30
2017-09-03T02:09:27.046Z,12.20
2017-09-03T02:11:53.085Z,12.20
2017-09-03T02:14:19.161Z,12.20
2017-09-03T02:16:45.212Z,12.20
2017-09-03T02:19:11.271Z,12.20
2017-09-03T02:21:37.321Z,12.20
2017-09-03T02:24:03.365Z,12.20
2017-09-03T02:26:29.399Z,12.10
2017-09-03T02:28:55.442Z,12.00
2017-09-03T02:31:21.461Z,12.00
2017-09-03T02:33:47.522Z,12.00
2017-09-03T02:36:13.554Z,12.10
2017-09-03T02:38:39.645Z,12.00
2017-09-03T02:41:05.685Z,12.00
2017-09-03T02:43:31.697Z,12.00
2017-09-03T02:45:57.742Z,11.90
2017-09-03T02:48:23.785Z,11.90
2017-09-03T02:50:49.848Z,11.90
2017-09-03T02:53:15.879Z,11.90
2017-09-03T02:55:41.912Z,11.80
2017-09-03T02:58:07.938Z,11.80
2017-09-03T03:00:33.999Z,11.80
2017-09-03T03:03:00.041Z,11.80
2017-09-03T03:05:26.081Z,11.70
2017-09-03T03:07:52.137Z,11.80
2017-09-03T03:10:18.179Z,11.80
2017-09-03T03:12:44.237Z,11.80
2017-09-03T03:15:10.309Z,11.80
2017-09-03T03:17:36.365Z,11.80
2017-09-03T03:20:02.413Z,11.80
2017-09-03T03:22:28.421Z,11.70
2017-09-03T03:24:54.453Z,11.70
2017-09-03T03:27:20.530Z,11.80
2017-09-03T03:29:46.571Z,11.60
2017-09-03T03:32:12.615Z,11.60
2017-09-03T03:34:38.657Z,11.60
2017-09-03T03:37:04.718Z,11.60
2017-09-03T03:39:30.751Z,11.60
2017-09-03T03:41:56.776Z,11.60
2017-09-03T03:44:22.814Z,11.60
2017-09-03T03:46:48.864Z,11.60
2017-09-03T03:49:14.913Z,11.60
2017-09-03T03:51:40.953Z,11.60
2017-09-03T03:54:06.994Z,11.50
2017-09-03T03:56:33.041Z,11.50
2017-09-03T03:58:59.074Z,11.50
2017-09-03T04:01:25.136Z,11.50
2017-09-03T04:03:51.212Z,11.50
2017-09-03T04:06:17.255Z,11.50
2017-09-03T04:08:43.292Z,11.50
2017-09-03T04:11:09.338Z,11.50
2017-09-03T04:13:35.387Z,11.50
2017-09-03T04:16:01.434Z,11.50
2017-09-03T04:18:27.501Z,11.40
2017-09-03T04:20:53.541Z,11.40
2017-09-03T04:23:19.565Z,11.40
2017-09-03T04:25:45.610Z,11.40
2017-09-03T04:28:11.632Z,11.30
2017-09-03T04:30:37.670Z,11.30
2017-09-03T04:33:03.681Z,11.30
2017-09-03T04:35:29.721Z,11.40
2017-09-03T04:37:55.769Z,11.30
2017-09-03T04:40:21.795Z,11.30
2017-09-03T04:42:47.833Z,11.30
2017-09-03T04:45:13.890Z,11.30
2017-09-03T04:47:39.927Z,11.30
2017-09-03T04:50:05.979Z,11.30
2017-09-03T04:52:32.021Z,11.30
2017-09-03T04:54:58.078Z,11.30
2017-09-03T04:57:24.105Z,11.30
2017-09-03T04:59:50.149Z,11.30
2017-09-03T05:02:16.196Z,11.30
2017-09-03T05:04:42.261Z,11.30
2017-09-03T05:07:08.289Z,11.40
2017-09-03T05:09:34.321Z,11.30
2017-09-03T05:12:00.353Z,11.40
2017-09-03T05:14:26.402Z,11.40
2017-09-03T05:16:52.474Z,11.40
2017-09-03T05:19:18.527Z,11.40
2017-09-03T05:21:44.582Z,11.40
2017-09-03T05:24:10.629Z,11.40
2017-09-03T05:26:36.651Z,11.40
2017-09-03T05:29:02.693Z,11.40
2017-09-03T05:31:28.740Z,11.50
2017-09-03T05:33:54.797Z,11.50
2017-09-03T05:36:20.869Z,11.60
2017-09-03T05:38:46.916Z,11.60
2017-09-03T05:41:12.978Z,11.60
2017-09-03T05:43:39.040Z,11.70
2017-09-03T05:46:05.077Z,11.70
2017-09-03T05:48:31.152Z,11.70
2017-09-03T05:50:57.269Z,11.70
2017-09-03T05:53:23.315Z,11.70
2017-09-03T05:55:49.363Z,11.70
2017-09-03T05:58:15.412Z,11.90
2017-09-03T06:00:41.464Z,11.90
2017-09-03T06:03:07.529Z,11.90
2017-09-03T06:05:33.563Z,11.90
2017-09-03T06:07:59.593Z,11.90
2017-09-03T06:10:25.628Z,12.00
2017-09-03T06:12:51.685Z,12.00
2017-09-03T06:15:17.772Z,12.10
2017-09-03T06:17:43.838Z,12.10
2017-09-03T06:20:09.877Z,12.20
2017-09-03T06:22:35.915Z,12.20
2017-09-03T06:25:01.973Z,12.30
2017-09-03T06:27:28.029Z,12.40
2017-09-03T06:29:54.065Z,12.50
2017-09-03T06:32:20.089Z,12.60
2017-09-03T06:34:46.148Z,12.70
2017-09-03T06:37:12.185Z,12.70
2017-09-03T06:39:38.234Z,12.80
2017-09-03T06:42:04.277Z,12.90
2017-09-03T06:44:30.305Z,13.00
2017-09-03T06:46:56.329Z,13.00
2017-09-03T06:49:22.379Z,13.10
2017-09-03T06:51:48.430Z,13.10
2017-09-03T06:54:14.489Z,13.30
2017-09-03T06:56:40.525Z,13.40
2017-09-03T06:59:06.549Z,13.40
2017-09-03T07:01:33.076Z,13.50
2017-09-03T07:03:59.393Z,13.60
2017-09-03T07:06:25.418Z,13.70
2017-09-03T07:08:51.465Z,13.80
2017-09-03T07:11:17.492Z,13.90
2017-09-03T07:13:44.892Z,14.00
2017-09-03T07:16:11.371Z,14.10
2017-09-03T07:18:37.451Z,14.20
2017-09-03T07:21:03.512Z,14.20
2017-09-03T07:23:29.565Z,14.30
2017-09-03T07:25:55.617Z,14.50
2017-09-03T07:28:21.638Z,14.60
2017-09-03T07:30:47.677Z,14.70
2017-09-03T07:33:13.737Z,14.80
2017-09-03T07:35:39.782Z,14.90
2017-09-03T07:38:05.833Z,15.00
2017-09-03T07:40:31.868Z,15.10
2017-09-03T07:42:57.926Z,15.30
2017-09-03T07:45:23.994Z,15.50
2017-09-03T07:47:50.096Z,15.70
2017-09-03T07:50:16.156Z,15.90
2017-09-03T07:52:42.249Z,16.10
2017-09-03T07:55:08.331Z,16.20
2017-09-03T07:57:34.397Z,16.30
2017-09-03T08:00:00.443Z,16.50
2017-09-03T08:02:26.497Z,16.60
2017-09-03T08:04:52.580Z,16.80
2017-09-03T08:07:18.645Z,16.90
2017-09-03T08:09:44.706Z,17.00
2017-09-03T08:12:10.770Z,17.20
2017-09-03T08:14:36.864Z,17.40
2017-09-03T08:17:02.902Z,17.50
2017-09-03T08:19:28.948Z,17.70
2017-09-03T08:21:55.283Z,17.90
2017-09-03T08:24:21.334Z,18.00
2017-09-03T08:26:47.415Z,18.10
2017-09-03T08:29:13.502Z,18.20
2017-09-03T08:31:39.564Z,18.30
2017-09-03T08:34:05.625Z,18.40
2017-09-03T08:36:31.697Z,18.60
2017-09-03T08:38:57.761Z,18.70
2017-09-03T08:41:23.826Z,18.80
2017-09-03T08:43:49.901Z,18.90
2017-09-03T08:46:16.114Z,19.00
2017-09-03T08:48:42.170Z,19.10
2017-09-03T08:51:08.228Z,19.20
2017-09-03T08:53:34.342Z,19.30
2017-09-03T08:56:00.396Z,19.40
2017-09-03T08:58:26.453Z,19.60
2017-09-03T09:00:52.517Z,19.80
2017-09-03T09:03:18.596Z,20.10
2017-09-03T09:05:45.100Z,20.60
2017-09-03T09:08:11.318Z,21.10
2017-09-03T09:10:38.988Z,21.40
2017-09-03T09:13:05.059Z,21.80
2017-09-03T09:15:31.113Z,22.50
2017-09-03T09:17:57.183Z,23.60
2017-09-03T09:20:23.242Z,24.70
2017-09-03T09:22:49.295Z,26.10
2017-09-03T09:25:15.358Z,27.20
2017-09-03T09:27:41.977Z,27.80
2017-09-03T09:30:08.084Z,27.50
2017-09-03T09:32:34.114Z,27.30
2017-09-03T09:35:00.150Z,27.30
2017-09-03T09:37:26.213Z,27.30
2017-09-03T09:39:52.342Z,27.60
2017-09-03T09:42:19.711Z,27.70
2017-09-03T09:44:46.207Z,27.60
2017-09-03T09:47:12.318Z,27.20
2017-09-03T09:49:38.381Z,26.30
2017-09-03T09:52:04.444Z,25.40
2017-09-03T09:54:30.477Z,24.60
2017-09-03T09:56:56.538Z,23.80
2017-09-03T09:59:22.594Z,23.10
2017-09-03T10:01:48.698Z,22.70
2017-09-03T10:04:14.757Z,22.70
2017-09-03T10:06:40.824Z,22.80
2017-09-03T10:09:06.891Z,23.00
2017-09-03T10:11:32.945Z,23.40
2017-09-03T10:13:59.001Z,23.70
2017-09-03T10:16:25.041Z,23.90
2017-09-03T10:18:51.158Z,24.00
2017-09-03T10:21:17.204Z,24.30
2017-09-03T10:23:43.257Z,24.70
2017-09-03T10:26:09.289Z,25.20
2017-09-03T10:28:35.377Z,26.10
2017-09-03T10:31:01.453Z,26.70
2017-09-03T10:33:27.518Z,27.20
2017-09-03T10:35:53.541Z,27.70
2017-09-03T10:38:19.603Z,28.60
2017-09-03T10:40:45.625Z,29.50
2017-09-03T10:43:11.716Z,30.40
2017-09-03T10:45:37.780Z,30.90
2017-09-03T10:48:03.844Z,32.10
2017-09-03T10:50:29.873Z,31.70
2017-09-03T10:52:55.898Z,30.60
2017-09-03T10:55:22.285Z,29.40
2017-09-03T10:57:48.337Z,28.40
2017-09-03T11:00:14.369Z,27.30
2017-09-03T11:02:40.423Z,26.10
2017-09-03T11:05:06.470Z,25.20
2017-09-03T11:07:32.617Z,24.30
2017-09-03T11:09:58.653Z,23.60
2017-09-03T11:12:24.697Z,23.20
2017-09-03T11:14:50.747Z,23.20
2017-09-03T11:17:17.522Z,25.40
2017-09-03T11:19:43.556Z,25.40
2017-09-03T11:22:09.597Z,27.00
2017-09-03T11:24:35.639Z,28.30
2017-09-03T11:27:01.681Z,28.50
2017-09-03T11:29:27.719Z,28.60
2017-09-03T11:31:53.753Z,29.00
2017-09-03T11:34:19.845Z,29.80
2017-09-03T11:36:45.905Z,29.80
2017-09-03T11:39:11.963Z,30.30
2017-09-03T11:41:38.093Z,30.50
2017-09-03T11:44:04.107Z,30.50
2017-09-03T11:46:30.137Z,31.30
2017-09-03T11:48:56.176Z,32.10
2017-09-03T11:51:22.209Z,32.40
2017-09-03T11:53:48.241Z,32.70
2017-09-03T11:56:14.297Z,32.60
2017-09-03T11:58:40.339Z,32.50
2017-09-03T12:01:06.372Z,33.20
2017-09-03T12:03:32.444Z,33.50
2017-09-03T12:05:58.514Z,33.20
2017-09-03T12:08:24.559Z,33.30
2017-09-03T12:10:50.605Z,33.40
2017-09-03T12:13:16.626Z,33.50
2017-09-03T12:15:42.690Z,33.10
2017-09-03T12:18:08.757Z,33.00
2017-09-03T12:20:34.794Z,32.70
2017-09-03T12:23:00.829Z,32.70
2017-09-03T12:25:26.882Z,32.40
2017-09-03T12:27:53.077Z,33.00
2017-09-03T12:30:19.133Z,33.50
2017-09-03T12:32:45.188Z,33.60
2017-09-03T12:35:11.247Z,32.10
2017-09-03T12:37:37.317Z,30.50
2017-09-03T12:40:03.407Z,28.90
2017-09-03T12:42:29.469Z,28.50
2017-09-03T12:44:55.519Z,28.90
2017-09-03T12:47:21.569Z,30.00
2017-09-03T12:49:47.625Z,30.40
2017-09-03T12:52:13.696Z,30.30
2017-09-03T12:54:39.769Z,30.50
2017-09-03T12:57:05.822Z,30.60
2017-09-03T12:59:31.864Z,30.00
2017-09-03T13:01:57.910Z,29.50
2017-09-03T13:04:23.937Z,29.30
2017-09-03T13:06:50.028Z,29.00
2017-09-03T13:09:16.099Z,28.80
2017-09-03T13:11:42.152Z,29.10
2017-09-03T13:14:08.194Z,29.40
2017-09-03T13:16:34.235Z,29.50
2017-09-03T13:19:00.336Z,29.10
2017-09-03T13:21:26.381Z,28.30
2017-09-03T13:23:52.437Z,27.50
2017-09-03T13:26:18.645Z,26.90
2017-09-03T13:28:44.693Z,26.30
2017-09-03T13:31:10.741Z,25.80
2017-09-03T13:33:36.787Z,25.20
2017-09-03T13:36:02.829Z,24.90
2017-09-03T13:38:28.876Z,24.70
2017-09-03T13:40:54.909Z,24.70
2017-09-03T13:43:21.026Z,24.50
2017-09-03T13:45:47.109Z,24.30
2017-09-03T13:48:13.140Z,24.00
2017-09-03T13:50:39.182Z,23.90
2017-09-03T13:53:05.226Z,24.00
2017-09-03T13:55:31.257Z,24.00
2017-09-03T13:57:57.351Z,24.00
2017-09-03T14:00:24.155Z,24.10
2017-09-03T14:02:50.201Z,24.10
2017-09-03T14:05:16.228Z,24.10
2017-09-03T14:07:42.299Z,24.50
2017-09-03T14:10:08.393Z,24.60
2017-09-03T14:12:34.422Z,24.70
2017-09-03T14:15:00.535Z,24.70
2017-09-03T14:17:26.610Z,24.70
2017-09-03T14:19:52.688Z,24.30
2017-09-03T14:22:18.745Z,24.10
2017-09-03T14:24:44.794Z,24.00
2017-09-03T14:27:10.868Z,23.90
2017-09-03T14:29:36.908Z,23.80
2017-09-03T14:32:02.947Z,23.50
2017-09-03T14:34:28.989Z,23.30
2017-09-03T14:36:55.032Z,23.20
2017-09-03T14:39:21.080Z,23.10
2017-09-03T14:41:47.113Z,22.90
2017-09-03T14:44:13.153Z,22.90
2017-09-03T14:46:39.206Z,22.80
2017-09-03T14:49:05.242Z,22.80
2017-09-03T14:51:31.275Z,22.80
2017-09-03T14:53:57.304Z,23.00
2017-09-03T14:56:23.334Z,23.40
2017-09-03T14:58:49.389Z,23.60
2017-09-03T15:01:15.455Z,24.00
2017-09-03T15:03:41.505Z,24.30
2017-09-03T15:06:07.569Z,24.30
2017-09-03T15:08:33.637Z,24.30
2017-09-03T15:10:59.665Z,24.30
2017-09-03T15:13:25.696Z,25.10
2017-09-03T15:15:51.753Z,26.60
2017-09-03T15:18:17.834Z,26.90
2017-09-03T15:20:43.894Z,26.30
2017-09-03T15:23:10.002Z,25.80
2017-09-03T15:25:36.049Z,25.40
2017-09-03T15:28:02.140Z,26.50
2017-09-03T15:30:28.205Z,27.80
2017-09-03T15:32:54.369Z,29.10
2017-09-03T15:35:20.536Z,30.00
2017-09-03T15:37:46.588Z,30.80
2017-09-03T15:40:12.658Z,30.80
2017-09-03T15:42:38.709Z,30.90
2017-09-03T15:45:04.766Z,30.90
2017-09-03T15:47:30.832Z,29.80
2017-09-03T15:49:56.870Z,28.60
2017-09-03T15:52:22.915Z,28.60
2017-09-03T15:54:48.969Z,28.50
2017-09-03T15:57:15.015Z,27.60
2017-09-03T15:59:41.077Z,26.80
2017-09-03T16:02:07.145Z,26.00
2017-09-03T16:04:33.239Z,25.70
2017-09-03T16:06:59.269Z,26.30
2017-09-03T16:09:25.337Z,27.60
2017-09-03T16:11:51.445Z,28.50
2017-09-03T16:14:17.491Z,29.50
2017-09-03T16:16:43.550Z,29.80
2017-09-03T16:19:09.610Z,29.00
2017-09-03T16:21:35.672Z,28.00
2017-09-03T16:24:01.701Z,26.90
2017-09-03T16:26:28.130Z,26.10
2017-09-03T16:28:54.192Z,25.50
2017-09-03T16:31:20.242Z,25.00
2017-09-03T16:33:46.287Z,24.60
2017-09-03T16:36:12.336Z,24.30
2017-09-03T16:38:38.389Z,23.90
2017-09-03T16:41:04.434Z,23.60
2017-09-03T16:43:30.477Z,23.40
2017-09-03T16:45:56.529Z,23.20
2017-09-03T16:48:22.587Z,23.00
2017-09-03T16:50:48.645Z,22.70
2017-09-03T16:53:14.697Z,22.50
2017-09-03T16:55:40.754Z,22.30
2017-09-03T16:58:06.841Z,22.00
2017-09-03T17:00:32.870Z,21.70
2017-09-03T17:02:58.921Z,21.60
2017-09-03T17:05:24.957Z,21.30
2017-09-03T17:07:51.037Z,21.10
2017-09-03T17:10:17.126Z,21.00
2017-09-03T17:12:43.243Z,20.80
2017-09-03T17:15:09.282Z,20.60
2017-09-03T17:17:35.305Z,20.40
2017-09-03T17:20:01.374Z,20.30
2017-09-03T17:22:27.417Z,20.30
2017-09-03T17:24:53.463Z,20.20
2017-09-03T17:27:19.505Z,20.10
2017-09-03T17:29:45.542Z,20.10
2017-09-03T17:32:11.578Z,20.00
2017-09-03T17:34:43.456Z,19.80
2017-09-03T17:37:10.338Z,19.70
2017-09-03T17:39:36.406Z,19.60
2017-09-03T17:42:02.441Z,19.50
2017-09-03T17:44:28.498Z,19.40
2017-09-03T17:46:55.443Z,19.40
2017-09-03T17:49:21.497Z,19.30
2017-09-03T17:51:47.544Z,19.20
2017-09-03T17:54:13.632Z,19.10
2017-09-03T17:56:39.663Z,19.20
2017-09-03T17:59:05.701Z,19.10
2017-09-03T18:01:31.745Z,19.10
2017-09-03T18:03:57.793Z,19.00
2017-09-03T18:06:23.852Z,18.90
2017-09-03T18:08:49.883Z,18.80
2017-09-03T18:11:15.914Z,18.80
2017-09-03T18:13:41.945Z,18.70
2017-09-03T18:16:07.981Z,18.50
2017-09-03T18:18:34.029Z,18.40
2017-09-03T18:21:00.089Z,18.30
2017-09-03T18:23:26.113Z,18.20
2017-09-03T18:25:52.164Z,18.10
2017-09-03T18:28:19.141Z,17.90
2017-09-03T18:30:46.188Z,17.80
2017-09-03T18:33:12.225Z,17.80
2017-09-03T18:35:38.272Z,17.60
2017-09-03T18:38:10.066Z,17.60
2017-09-03T18:40:39.949Z,17.50
2017-09-03T18:43:08.812Z,17.40
2017-09-03T18:45:38.646Z,17.30
2017-09-03T18:48:04.665Z,17.20
2017-09-03T18:50:33.676Z,17.20
2017-09-03T18:53:03.745Z,17.00
2017-09-03T18:55:32.721Z,17.00
2017-09-03T18:58:01.620Z,16.90
2017-09-03T19:00:28.563Z,16.80
2017-09-03T19:02:56.453Z,16.80
2017-09-03T19:05:24.437Z,16.80
2017-09-03T19:07:50.468Z,16.80
2017-09-03T19:10:16.511Z,16.70
2017-09-03T19:12:42.559Z,16.70
2017-09-03T19:15:08.617Z,16.60
2017-09-03T19:17:34.682Z,16.60
2017-09-03T19:20:00.721Z,16.50
2017-09-03T19:22:26.778Z,16.50
2017-09-03T19:24:53.673Z,16.40
2017-09-03T19:27:19.727Z,16.40
2017-09-03T19:29:45.765Z,16.40
2017-09-03T19:32:11.878Z,16.30
2017-09-03T19:34:37.917Z,16.30
2017-09-03T19:37:03.958Z,16.20
2017-09-03T19:39:30.034Z,16.10
2017-09-03T19:41:56.073Z,16.10
2017-09-03T19:44:22.180Z,16.00
2017-09-03T19:46:48.220Z,16.00
2017-09-03T19:49:14.260Z,15.90
2017-09-03T19:51:40.289Z,15.80
2017-09-03T19:54:06.367Z,15.80
2017-09-03T19:56:32.402Z,15.80
2017-09-03T19:58:58.485Z,15.80
2017-09-03T20:01:24.498Z,15.80
2017-09-03T20:03:50.525Z,15.80
2017-09-03T20:06:16.564Z,15.80
2017-09-03T20:08:42.638Z,15.70
2017-09-03T20:11:08.661Z,15.60
2017-09-03T20:13:34.706Z,15.50
2017-09-03T20:16:00.756Z,15.50
2017-09-03T20:18:26.830Z,15.40
2017-09-03T20:20:52.888Z,15.40
2017-09-03T20:23:18.908Z,15.40
2017-09-03T20:25:44.937Z,15.40
2017-09-03T20:28:10.958Z,15.40
2017-09-03T20:30:36.984Z,15.50
2017-09-03T20:33:03.009Z,15.40
2017-09-03T20:35:29.037Z,15.40
2017-09-03T20:37:55.061Z,15.40
2017-09-03T20:40:21.096Z,15.40
2017-09-03T20:42:47.121Z,15.30
2017-09-03T20:45:13.269Z,15.30
2017-09-03T20:47:39.292Z,15.30
2017-09-03T20:50:05.296Z,15.20
2017-09-03T20:52:31.348Z,15.20
2017-09-03T20:54:57.404Z,15.20
2017-09-03T20:57:23.437Z,15.10
2017-09-03T20:59:49.460Z,15.10
2017-09-03T21:02:15.517Z,15.10
2017-09-03T21:04:41.582Z,15.00
2017-09-03T21:07:07.623Z,15.00
2017-09-03T21:09:33.648Z,14.90
2017-09-03T21:11:59.687Z,14.80
2017-09-03T21:14:25.729Z,14.80
2017-09-03T21:16:51.781Z,14.80
2017-09-03T21:19:17.813Z,14.80
2017-09-03T21:21:43.838Z,14.80
2017-09-03T21:24:09.887Z,14.70
2017-09-03T21:26:35.896Z,14.70
2017-09-03T21:29:01.937Z,14.60
2017-09-03T21:31:27.957Z,14.60
2017-09-03T21:33:53.997Z,14.60
2017-09-03T21:36:20.032Z,14.50
2017-09-03T21:38:46.093Z,14.40
2017-09-03T21:41:12.121Z,14.40
2017-09-03T21:43:38.159Z,14.40
2017-09-03T21:46:04.203Z,14.50
2017-09-03T21:48:30.237Z,14.50
2017-09-03T21:50:56.253Z,14.40
2017-09-03T21:53:22.289Z,14.40
2017-09-03T21:55:48.328Z,14.30
2017-09-03T21:58:14.376Z,14.30
2017-09-03T22:00:40.402Z,14.20
2017-09-03T22:03:06.413Z,14.30
2017-09-03T22:05:32.494Z,14.20
2017-09-03T22:07:58.546Z,14.20
2017-09-03T22:10:24.597Z,14.10
2017-09-03T22:12:50.652Z,14.10
2017-09-03T22:15:16.700Z,14.10
2017-09-03T22:17:42.721Z,14.10
2017-09-03T22:20:08.769Z,14.00
2017-09-03T22:22:34.781Z,14.00
2017-09-03T22:25:00.857Z,14.00
2017-09-03T22:27:26.890Z,14.10
2017-09-03T22:29:52.916Z,14.10
2017-09-03T22:32:18.951Z,14.00
2017-09-03T22:34:45.001Z,14.00
2017-09-03T22:37:11.050Z,13.90
2017-09-03T22:39:37.062Z,13.80
2017-09-03T22:42:03.097Z,13.90
2017-09-03T22:44:29.110Z,13.80
2017-09-03T22:46:55.158Z,13.90
2017-09-03T22:49:21.198Z,13.80
2017-09-03T22:51:47.262Z,13.80
2017-09-03T22:54:13.272Z,13.70
2017-09-03T22:56:39.322Z,13.70
2017-09-03T22:59:05.376Z,13.60
2017-09-03T23:01:31.429Z,13.60
2017-09-03T23:03:57.488Z,13.60
2017-09-03T23:06:23.534Z,13.50
2017-09-03T23:08:49.553Z,13.50
2017-09-03T23:11:15.693Z,13.50
2017-09-03T23:13:41.721Z,13.50
2017-09-03T23:16:07.787Z,13.50
2017-09-03T23:18:33.860Z,13.50
2017-09-03T23:20:59.901Z,13.40
2017-09-03T23:23:25.969Z,13.30
2017-09-03T23:25:52.008Z,13.30
2017-09-03T23:28:18.047Z,13.30
2017-09-03T23:30:44.072Z,13.30
2017-09-03T23:33:10.116Z,13.30
2017-09-03T23:35:36.137Z,13.30
2017-09-03T23:38:02.211Z,13.30
2017-09-03T23:40:28.237Z,13.20
2017-09-03T23:42:54.254Z,13.20
2017-09-03T23:45:20.299Z,13.20
2017-09-03T23:47:46.344Z,13.20
2017-09-03T23:50:12.406Z,13.20
2017-09-03T23:52:38.421Z,13.10
2017-09-03T23:55:04.443Z,13.00
2017-09-03T23:57:30.495Z,12.90
2017-09-03T23:59:56.518Z,12.90
